• Join FlightAware (Why Join?)
  • Login
  • US Flag 
10:36AM EST


 

Airport Tracker/Info


-or-


 

Live Flight TrackerFlight Track Log ✈ UPS489 ✈ 04-May-2012 ✈ KBFI - KSDF

Flight Track Log - Related Links

Times and Time Zones

All times are in EDT time to prevent confusion due to time zone crossing. See the UPS489 flight status page for this flight to view local times or setup timezone preferences in your user account.

Time Position Orientation Groundspeed Altitude Reporting Facility
EDT Latitude Longitude Course Direction KTS MPH feet Rate Location/Type
10:51PM 47.5508 -122.3189 51° Northeast 161 185 1,400  Level Seattle Center
10:56PM 47.6278 -122.1753 124° Southeast 371 427 13,400 2,100 Climbing Seattle Center
10:57PM 47.5642 -122.0378 123° Southeast 408 470 15,800 2,400 Climbing Seattle Center
10:58PM 47.5019 -121.8969 121° Southeast 422 486 18,400 2,400 Climbing Seattle Center
10:59PM 47.4378 -121.7392 95° East 449 517 20,800 2,160 Climbing Seattle Center
11:01PM 47.4275 -121.5578 91° East 452 520 22,900 1,980 Climbing Seattle Center
11:02PM 47.4242 -121.3719 91° East 456 525 24,900 1,980 Climbing Seattle Center
11:03PM 47.4208 -121.1794 92° East 469 540 26,900 1,860 Climbing Seattle Center
11:04PM 47.4161 -120.9403 92° East 487 560 28,700 1,860 Climbing Seattle Center
11:05PM 47.4117 -120.7289 92° East 501 577 30,700 1,740 Climbing Seattle Center
11:06PM 47.4067 -120.5264 97° East 499 574 32,300 1,320 Climbing Seattle Center
11:07PM 47.3886 -120.3239 104° East 498 573 33,500 1,320 Climbing Seattle Center
11:08PM 47.3553 -120.1256 104° East 499 574 35,000 720 Climbing Seattle Center
11:09PM 47.3228 -119.9336 99° East 488 562 35,000  Level Seattle Center
11:10PM 47.3000 -119.7331 101° East 500 575 35,000  Level Seattle Center
11:11PM 47.2742 -119.5303 101° East 504 580 35,000  Level Seattle Center
11:12PM 47.2461 -119.3267 101° East 509 586 35,000  Level Seattle Center
11:13PM 47.2186 -119.1211 100° East 512 589 35,000  Level Seattle Center
11:14PM 47.1931 -118.9175 101° East 510 587 35,000  Level Seattle Center
11:15PM 47.1661 -118.7136 101° East 511 588 35,000  Level Seattle Center
11:16PM 47.1383 -118.5103 101° East 510 587 35,000  Level Seattle Center
11:17PM 47.1058 -118.2714 101° East 504 580 35,000  Level Seattle Center
11:18PM 47.0789 -118.0736 101° East 499 574 35,000  Level Seattle Center
11:19PM 47.0528 -117.8783 102° East 495 570 35,000  Level Seattle Center
11:20PM 47.0250 -117.6825 101° East 494 568 35,000  Level Seattle Center
11:21PM 46.9983 -117.4886 102° East 492 566 35,000  Level Seattle Center
11:22PM 46.9706 -117.2969 102° East 489 563 35,000  Level Seattle Center
11:23PM 46.9422 -117.1033 102° East 490 564 35,000  Level Seattle Center
11:24PM 46.9136 -116.9100 102° East 490 564 35,000  Level Seattle Center
11:25PM 46.8850 -116.7147 102° East 493 567 35,000  Level Seattle Center
11:26PM 46.8550 -116.5156 103° East 493 567 35,000  Level Seattle Center
11:27PM 46.8192 -116.2892 102° East 492 566 35,000  Level Seattle Center
11:28PM 46.7894 -116.0936 103° East 494 568 35,000  Level Seattle Center
11:29PM 46.7586 -115.8989 103° East 495 570 35,000  Level Seattle Center
11:30PM 46.7278 -115.7044 103° East 495 570 35,000  Level Seattle Center
11:31PM 46.6961 -115.5106 104° East 495 570 35,000  Level Seattle Center
11:32PM 46.6639 -115.3161 104° East 495 570 35,000  Level Seattle Center
11:33PM 46.6319 -115.1233 103° East 494 568 35,000  Level Seattle Center
11:34PM 46.6011 -114.9367 104° East 494 568 35,000  Level Seattle Center
11:35PM 46.5683 -114.7431 104° East 495 570 35,000  Level Seattle Center
11:36PM 46.5350 -114.5497 104° East 496 571 35,000  Level Seattle Center
11:37PM 46.5017 -114.3581 104° East 494 568 35,000  Level Seattle Center
11:38PM 46.4603 -114.1217 104° East 495 570 35,000  Level Seattle Center
11:39PM 46.4267 -113.9333 104° East 497 572 35,000  Level Seattle Center
11:40PM 46.3925 -113.7408 105° East 497 572 35,000  Level Seattle Center
11:41PM 46.3436 -113.4689 105° East 499 574 35,000  Level Salt Lake Center
11:43PM 46.3033 -113.2536 106° East 501 577 35,000  Level Salt Lake Center
11:44PM 46.2703 -113.0825 105° East 501 577 35,000  Level Salt Lake Center
11:45PM 46.2342 -112.8878 106° East 501 577 35,000  Level Salt Lake Center
11:46PM 46.1958 -112.6917 105° East 504 580 35,000  Level Salt Lake Center
11:47PM 46.1522 -112.4544 105° East 508 585 35,000  Level Salt Lake Center
11:48PM 46.1153 -112.2589 106° East 507 583 35,000  Level Salt Lake Center
11:49PM 46.0761 -112.0650 106° East 506 582 35,000  Level Salt Lake Center
11:50PM 46.0381 -111.8700 106° East 505 581 35,000  Level Salt Lake Center
11:51PM 45.9989 -111.6756 106° East 505 581 35,000  Level Salt Lake Center
11:52PM 45.9603 -111.4806 106° East 505 581 35,000  Level Salt Lake Center
11:53PM 45.9194 -111.2822 106° East 509 586 35,000  Level Salt Lake Center
11:54PM 45.8778 -111.0775 107° East 514 592 35,000  Level Salt Lake Center
11:55PM 45.8356 -110.8747 107° East 518 596 35,000  Level Salt Lake Center
11:56PM 45.7933 -110.6747 107° East 519 597 35,000  Level Salt Lake Center
11:57PM 45.7522 -110.4844 107° East 524 603 35,000  Level Salt Lake Center
11:58PM 45.7044 -110.2611 107° East 526 605 35,000  Level Salt Lake Center
11:59PM 45.6633 -110.0708 107° East 524 603 35,000  Level Salt Lake Center
12:00AM 45.6156 -109.8478 107° East 525 604 35,000  Level Salt Lake Center
12:01AM 45.5736 -109.6547 108° East 529 609 35,000  Level Salt Lake Center
12:02AM 45.5303 -109.4633 108° East 530 610 35,000  Level Salt Lake Center
12:03AM 45.4811 -109.2428 108° East 525 604 35,000  Level Salt Lake Center
12:04AM 45.4381 -109.0550 108° East 522 601 35,000  Level Salt Lake Center
12:05AM 45.3950 -108.8667 108° East 522 601 35,000  Level Salt Lake Center
12:06AM 45.3439 -108.6486 108° East 521 600 35,000  Level Salt Lake Center
12:07AM 45.2997 -108.4592 108° East 524 603 35,000  Level Salt Lake Center
12:08AM 45.2475 -108.2375 108° East 528 608 35,000  Level Salt Lake Center
12:09AM 45.2028 -108.0469 109° East 529 609 35,000  Level Salt Lake Center
12:10AM 45.1567 -107.8567 109° East 528 608 35,000  Level Salt Lake Center
12:11AM 45.1031 -107.6342 109° East 528 608 35,000  Level Salt Lake Center
12:12AM 45.0567 -107.4419 109° East 532 612 35,000  Level Salt Lake Center
12:13AM 45.0100 -107.2500 109° East 535 616 35,000  Level Salt Lake Center
12:14AM 44.9553 -107.0286 110° East 534 615 35,000  Level Salt Lake Center
12:15AM 44.9078 -106.8406 110° East 531 611 35,000  Level Salt Lake Center
12:16AM 44.8603 -106.6533 110° East 530 610 35,000  Level Salt Lake Center
12:17AM 44.8047 -106.4361 110° East 528 608 35,000  Level Salt Lake Center
12:18AM 44.7558 -106.2492 110° East 529 609 35,000  Level Salt Lake Center
12:19AM 44.6989 -106.0306 111° Southeast 529 609 35,000  Level Salt Lake Center
12:20AM 44.6489 -105.8436 110° East 532 612 35,000  Level Salt Lake Center
12:21AM 44.5994 -105.6556 110° East 535 616 35,000  Level Salt Lake Center
12:22AM 44.5433 -105.4392 110° East 532 612 35,000  Level Salt Lake Center
12:23AM 44.4944 -105.2544 111° Southeast 530 610 35,000  Level Salt Lake Center
12:24AM 44.4358 -105.0397 111° Southeast 529 609 35,000  Level Salt Lake Center
12:25AM 44.3853 -104.8556 110° East 529 609 35,000  Level Salt Lake Center
12:27AM 44.3178 -104.6011 111° Southeast 518 596 35,000  Level Denver Center
12:28AM 44.2692 -104.4258 112° Southeast 530 610 35,000  Level Denver Center
12:29AM 44.2089 -104.2167 112° Southeast 530 610 35,000  Level Denver Center
12:30AM 44.1553 -104.0278 111° Southeast 530 610 35,000  Level Denver Center
12:31AM 44.1011 -103.8306 113° Southeast 530 610 35,000  Level Denver Center
12:32AM 44.0492 -103.6567 112° Southeast 530 610 35,000  Level Denver Center
12:33AM 43.9878 -103.4461 112° Southeast 530 610 35,000  Level Denver Center
12:34AM 43.9328 -103.2586 112° Southeast 530 610 35,000  Level Denver Center
12:35AM 43.8775 -103.0686 113° Southeast 532 612 35,000  Level Denver Center
12:36AM 43.8244 -102.8931 112° Southeast 532 612 35,000  Level Denver Center
12:37AM 43.7686 -102.7067 112° Southeast 532 612 35,000  Level Denver Center
12:38AM 43.7075 -102.4981 113° Southeast 532 612 35,000  Level Denver Center
12:39AM 43.6511 -102.3150 112° Southeast 526 605 35,000  Level Denver Center
12:40AM 43.6036 -102.1547 113° Southeast 514 592 35,000  Level Denver Center
12:41AM 43.5444 -101.9642 113° Southeast 505 581 35,000  Level Denver Center
12:42AM 43.4872 -101.7822 114° Southeast 500 575 35,000  Level Denver Center
12:43AM 43.4325 -101.6119 113° Southeast 500 575 35,000  Level Denver Center
12:44AM 43.3794 -101.4419 114° Southeast 494 568 35,000  Level Denver Center
12:45AM 43.3236 -101.2667 113° Southeast 489 563 35,000  Level Denver Center
12:46AM 43.2700 -101.0914 113° Southeast 494 568 35,000  Level Denver Center
12:47AM 43.2158 -100.9164 92° East 494 568 35,000  Level Denver Center
12:48AM 43.2106 -100.7203 87° East 493 567 35,000  Level Denver Center
12:49AM 43.2172 -100.5203 88° East 505 581 35,000  Level Denver Center
12:51AM 43.2278 -100.1278 87° East 529 609 35,000  Level Minneapolis Center
12:52AM 43.2353 -99.9289 88° East 524 603 35,000  Level Minneapolis Center
12:53AM 43.2408 -99.7272 86° East 524 603 35,000  Level Minneapolis Center
12:54AM 43.2500 -99.5256 88° East 529 609 35,000  Level Minneapolis Center
12:55AM 43.2544 -99.3264 89° East 529 609 35,000  Level Minneapolis Center
12:56AM 43.2564 -99.1269 95° East 522 601 35,000  Level Minneapolis Center
12:57AM 43.2425 -98.9061 93° East 517 595 35,000  Level Minneapolis Center
12:58AM 43.2364 -98.7344 95° East 517 595 35,000  Level Minneapolis Center
12:59AM 43.2228 -98.5367 96° East 523 602 35,000  Level Minneapolis Center
01:00AM 43.2086 -98.3389 96° East 528 608 35,000  Level Minneapolis Center
01:01AM 43.1942 -98.1467 104° East 523 602 35,000  Level Minneapolis Center
01:02AM 43.1603 -97.9561 106° East 517 595 35,000  Level Minneapolis Center
01:03AM 43.1200 -97.7683 106° East 510 587 35,000  Level Minneapolis Center
01:04AM 43.0811 -97.5836 106° East 510 587 35,000  Level Minneapolis Center
01:05AM 43.0383 -97.3847 106° East 505 581 35,000  Level Minneapolis Center
01:06AM 42.9992 -97.1947 106° East 505 581 35,000  Level Minneapolis Center
01:07AM 42.9617 -97.0108 106° East 505 581 35,000  Level Minneapolis Center
01:08AM 42.9236 -96.8272 106° East 505 581 35,000  Level Minneapolis Center
01:09AM 42.8853 -96.6439 106° East 505 581 35,000  Level Minneapolis Center
01:10AM 42.8447 -96.4578 104° East 505 581 35,000  Level Minneapolis Center
01:11AM 42.8100 -96.2722 101° East 506 582 35,000  Level Minneapolis Center
01:12AM 42.7817 -96.0786 105° East 511 588 35,000  Level Minneapolis Center
01:13AM 42.7481 -95.9075 104° East 516 594 35,000  Level Minneapolis Center
01:14AM 42.7106 -95.7056 117° Southeast 509 586 35,000  Level Minneapolis Center
01:15AM 42.6453 -95.5311 126° Southeast 500 575 35,000  Level Minneapolis Center
01:16AM 42.5628 -95.3761 126° Southeast 500 575 35,000  Level Minneapolis Center
01:17AM 42.4800 -95.2244 131° Southeast 500 575 35,000  Level Minneapolis Center
01:18AM 42.4008 -95.1014 130° Southeast 500 575 35,000  Level Minneapolis Center
01:19AM 42.3092 -94.9531 130° Southeast 500 575 35,000  Level Minneapolis Center
01:20AM 42.2217 -94.8108 129° Southeast 500 575 35,000  Level Minneapolis Center
01:21AM 42.1339 -94.6636 129° Southeast 500 575 35,000  Level Minneapolis Center
01:22AM 42.0458 -94.5194 131° Southeast 500 575 35,000  Level Minneapolis Center
01:24AM 41.8258 -94.1769 129° Southeast 515 593 35,000  Level Chicago Center
01:25AM 41.7342 -94.0281 130° Southeast 515 593 35,000  Level Chicago Center
01:26AM 41.6478 -93.8883 129° Southeast 501 577 35,000  Level Chicago Center
01:27AM 41.5597 -93.7433 130° Southeast 501 577 35,000  Level Chicago Center
01:28AM 41.4692 -93.5986 131° Southeast 501 577 35,000  Level Chicago Center
01:29AM 41.3783 -93.4597 130° Southeast 501 577 35,000  Level Chicago Center
01:30AM 41.2953 -93.3300 131° Southeast 507 583 35,000  Level Chicago Center
01:33AM 41.0561 -92.9633 130° Southeast 493 567 35,000  Level Kansas City Center
01:34AM 40.9689 -92.8281 132° Southeast 488 562 35,000  Level Kansas City Center
01:35AM 40.8689 -92.6797 129° Southeast 488 562 35,000  Level Kansas City Center
01:36AM 40.7814 -92.5394 121° Southeast 488 562 35,000  Level Kansas City Center
01:37AM 40.7231 -92.4097 106° East 488 562 35,000  Level Kansas City Center
01:38AM 40.6867 -92.2386 105° East 473 544 35,000  Level Kansas City Center
01:39AM 40.6519 -92.0675 106° East 478 550 35,000  Level Kansas City Center
01:40AM 40.6150 -91.8994 107° East 478 550 35,000  Level Kansas City Center
01:41AM 40.5758 -91.7314 105° East 478 550 35,000  Level Kansas City Center
01:42AM 40.5383 -91.5472 108° East 473 544 35,000  Level Kansas City Center
01:43AM 40.4986 -91.3853 105° East 473 544 35,000  Level Kansas City Center
01:44AM 40.4653 -91.2258 106° East 467 537 35,000  Level Kansas City Center
01:44AM 40.4381 -91.1039 107° East 470 541 35,000  Level Chicago Center
01:47AM 40.3606 -90.7761 106° East 473 544 35,000  Level Kansas City Center
01:48AM 40.3242 -90.6119 107° East 473 544 35,000  Level Kansas City Center
01:49AM 40.2853 -90.4456 108° East 473 544 35,000  Level Kansas City Center
01:50AM 40.2464 -90.2847 107° East 473 544 35,000  Level Kansas City Center
01:51AM 40.2119 -90.1400 107° East 448 516 35,000  Level Kansas City Center
01:52AM 40.1797 -89.9981 107° East 420 483 35,000  Level Kansas City Center
01:53AM 40.1475 -89.8644 107° East 399 459 35,000  Level Kansas City Center
01:54AM 40.1175 -89.7361 107° East 380 437 35,000  Level Kansas City Center
01:55AM 40.0850 -89.6000 108° East 380 437 35,000  Level Kansas City Center
01:56AM 40.0525 -89.4694 108° East 380 437 35,000  Level Kansas City Center
01:57AM 40.0197 -89.3361 107° East 380 437 35,000  Level Kansas City Center
01:58AM 39.9889 -89.2058 108° East 380 437 35,000  Level Kansas City Center
01:59AM 39.9558 -89.0728 108° East 380 437 35,000  Level Kansas City Center
02:00AM 39.9228 -88.9400 109° East 380 437 35,000  Level Kansas City Center
02:01AM 39.8600 -88.6989 111° Southeast 409 471 35,000  Level Indianapolis Center
02:02AM 39.8200 -88.5608 107° East 409 471 35,000  Level Indianapolis Center
02:03AM 39.7847 -88.4069 109° East 409 471 35,000  Level Indianapolis Center
02:04AM 39.7486 -88.2669 109° East 409 471 35,000  Level Indianapolis Center
02:05AM 39.7106 -88.1239 108° East 410 472 35,000  Level Indianapolis Center
02:06AM 39.6761 -87.9842 109° East 415 478 35,000  Level Indianapolis Center
02:07AM 39.6397 -87.8442 107° East 413 475 35,000  Level Indianapolis Center
02:08AM 39.6053 -87.7019 109° East 413 475 35,000  Level Indianapolis Center
02:09AM 39.5664 -87.5569 109° East 415 478 35,000  Level Indianapolis Center
02:10AM 39.5294 -87.4147 111° Southeast 420 483 35,000 -420 Level Indianapolis Center
02:11AM 39.4881 -87.2753 145° Southeast 415 478 34,200 -1,080 Descending Indianapolis Center
02:12AM 39.4008 -87.1956 120° Southeast 392 451 32,900 -1,320 Descending Indianapolis Center
02:13AM 39.3500 -87.0800 72° East 373 429 31,600 -1,200 Descending Indianapolis Center
02:14AM 39.3831 -86.9500 24° Northeast 389 448 30,600 -840 Descending Indianapolis Center
02:15AM 39.4636 -86.9028 326° Northwest 372 428 30,000 -300 Descending Indianapolis Center
02:16AM 39.5431 -86.9711 301° West 344 396 30,000  Level Indianapolis Center
02:17AM 39.5900 -87.0731 301° West 344 396 30,000  Level Indianapolis Center
02:18AM 39.6389 -87.1808 299° West 344 396 30,000  Level Indianapolis Center
02:19AM 39.6856 -87.2883 256° West 344 396 30,000  Level Indianapolis Center
02:20AM 39.6631 -87.4058 187° South 313 360 30,000  Level Indianapolis Center
02:21AM 39.5667 -87.4222 111° Southeast 312 359 30,000  Level Indianapolis Center
02:22AM 39.5292 -87.2936 85° East 386 444 30,000  Level Indianapolis Center
02:23AM 39.5397 -87.1489 87° East 394 453 30,000  Level Indianapolis Center
02:24AM 39.5458 -87.0144 86° East 394 453 30,000  Level Indianapolis Center
02:25AM 39.5542 -86.8747 86° East 383 441 30,000  Level Indianapolis Center
02:26AM 39.5619 -86.7406 86° East 377 434 30,000  Level Indianapolis Center
02:27AM 39.5697 -86.6033 86° East 377 434 30,000  Level Indianapolis Center
02:28AM 39.5775 -86.4636 96° East 382 440 30,000  Level Indianapolis Center
02:29AM 39.5661 -86.3286 148° Southeast 382 440 30,000  Level Indianapolis Center
02:30AM 39.4842 -86.2633 214° Southwest 333 383 30,000  Level Indianapolis Center
02:31AM 39.4119 -86.3253 263° West 323 372 30,000  Level Indianapolis Center
02:32AM 39.4008 -86.4403 268° West 323 372 30,000  Level Indianapolis Center
02:33AM 39.3983 -86.5422 268° West 331 381 30,000  Level Indianapolis Center
02:34AM 39.3953 -86.6606 268° West 326 375 30,000  Level Indianapolis Center
02:35AM 39.3922 -86.7758 268° West 326 375 30,000  Level Indianapolis Center
02:36AM 39.3889 -86.8967 267° West 331 381 30,000  Level Indianapolis Center
02:37AM 39.3833 -87.0147 268° West 331 381 30,000  Level Indianapolis Center
02:38AM 39.3794 -87.1433 301° West 323 372 30,000  Level Indianapolis Center
02:39AM 39.4225 -87.2369 North 323 372 30,000  Level Indianapolis Center
02:40AM 39.5228 -87.2286 59° Northeast 350 403 30,000  Level Indianapolis Center
02:41AM 39.5786 -87.1078 69° East 392 451 30,000  Level Indianapolis Center
02:42AM 39.6181 -86.9775 68° East 394 453 30,000  Level Indianapolis Center
02:43AM 39.6592 -86.8472 69° East 394 453 30,000 -60 Level Indianapolis Center
02:44AM 39.6981 -86.7169 86° East 385 443 29,900 -780 Descending Indianapolis Center
02:45AM 39.7058 -86.5850 86° East 373 429 28,500 -1,260 Descending Indianapolis Center
02:46AM 39.7133 -86.4531 83° East 368 423 27,400 -1,080 Descending Indianapolis Center
02:47AM 39.7244 -86.3347 86° East 363 418 26,400 -1,380 Descending Indianapolis Center
02:48AM 39.7314 -86.2108 118° Southeast 363 418 24,700 -1,860 Descending Indianapolis Center
02:49AM 39.6781 -86.0819 163° South 361 415 22,700 -1,860 Descending Indianapolis Center
02:50AM 39.5828 -86.0436 162° South 343 395 21,000 -1,620 Descending Indianapolis Center
02:51AM 39.4897 -86.0053 163° South 362 417 19,500 -1,380 Descending Indianapolis Center
02:52AM 39.4050 -85.9728 161° South 362 417 18,300 -1,380 Descending Indianapolis Center
02:53AM 39.3119 -85.9322 162° South 352 405 16,800 -1,380 Descending Indianapolis Center
02:54AM 39.2231 -85.8944 162° South 352 405 15,600 -1,260 Descending Indianapolis Center
02:55AM 39.1322 -85.8567 163° South 347 399 14,300 -840 Descending Indianapolis Center
02:56AM 39.0431 -85.8217 162° South 339 390 14,000 -300 Descending Indianapolis Center
02:57AM 38.9542 -85.7842 163° South 339 390 13,800 -780 Descending Indianapolis Center
02:58AM 38.8631 -85.7494 177° South 339 390 12,500 -1,740 Descending Indianapolis Center
02:59AM 38.7672 -85.7436 176° South 334 384 10,400 -1,980 Descending Indianapolis Center
03:00AM 38.6819 -85.7358 178° South 324 373 8,600 -2,100 Descending Indianapolis Center
03:01AM 38.5964 -85.7325 217° Southwest 298 343 6,200 -1,560 Descending FAA TRACON SMA TRACON (SMA)
03:02AM 38.5622 -85.7658 229° Southwest 266 306 6,000 -300 Descending FAA TRACON SMA TRACON (SMA)
03:03AM 38.5333 -85.8089 211° Southwest 230 265 5,800 -1,140 Descending FAA TRACON SMA TRACON (SMA)
03:03AM 38.4958 -85.8378 180° South 245 282 4,500 -1,440 Descending FAA TRACON SMA TRACON (SMA)
03:04AM 38.4539 -85.8381 165° South 248 285 3,900 -1,140 Descending FAA TRACON SMA TRACON (SMA)
03:05AM 38.4103 -85.8233 166° South 233 268 3,000 -780 Descending FAA TRACON SMA TRACON (SMA)
03:05AM 38.3733 -85.8117 165° South 193 222 2,900  Descending FAA TRACON SMA TRACON (SMA)
03:06AM 38.3411 -85.8003 165° South 195 224 3,000 -120 Climbing FAA TRACON SMA TRACON (SMA)
03:07AM 38.3050 -85.7883 165° South 194 223 2,800 -720 Descending FAA TRACON SMA TRACON (SMA)
03:07AM 38.2697 -85.7767 165° South 190 219 2,100 -960 Descending FAA TRACON SMA TRACON (SMA)
03:08AM 38.2408 -85.7669 165° South 172 198 1,600 -840 Descending FAA TRACON SMA TRACON (SMA)
03:09AM 38.2131 -85.7578 166° South 146 168 1,000 -780 Descending FAA TRACON SMA TRACON (SMA)
03:09AM 38.1900 -85.7503 166° South 136 157 600 -600 Descending FAA TRACON SMA TRACON (SMA)